createdAt,value
2017-12-27T00:01:01.748Z,8.4
2017-12-27T00:02:04.156Z,8.3
2017-12-27T00:03:06.555Z,8.3
2017-12-27T00:04:08.964Z,8.3
2017-12-27T00:05:11.389Z,8.3
2017-12-27T00:06:13.783Z,8.3
2017-12-27T00:07:16.194Z,8.3
2017-12-27T00:08:18.601Z,8.3
2017-12-27T00:09:21.008Z,8.3
2017-12-27T00:10:23.424Z,8.2
2017-12-27T00:11:25.835Z,8.2
2017-12-27T00:12:28.519Z,8.2
2017-12-27T00:13:30.938Z,8.2
2017-12-27T00:14:33.335Z,8.2
2017-12-27T00:15:35.746Z,8.1
2017-12-27T00:16:38.437Z,8.1
2017-12-27T00:17:40.850Z,8.1
2017-12-27T00:18:43.266Z,8.1
2017-12-27T00:19:45.681Z,8.1
2017-12-27T00:20:48.085Z,8.1
2017-12-27T00:21:50.504Z,8.1
2017-12-27T00:22:53.200Z,8.1
2017-12-27T00:23:55.603Z,8.1
2017-12-27T00:24:58.002Z,8.1
2017-12-27T00:26:00.412Z,8.1
2017-12-27T00:27:02.818Z,8.1
2017-12-27T00:28:05.232Z,8
2017-12-27T00:29:07.632Z,8
2017-12-27T00:30:10.040Z,8
2017-12-27T00:31:12.445Z,8
2017-12-27T00:32:14.905Z,8
2017-12-27T00:33:17.266Z,8
2017-12-27T00:34:19.675Z,8
2017-12-27T00:35:22.078Z,8
2017-12-27T00:36:24.495Z,7.9
2017-12-27T00:37:26.902Z,7.9
2017-12-27T00:38:29.305Z,7.9
2017-12-27T00:39:31.714Z,7.9
2017-12-27T00:40:34.131Z,7.9
2017-12-27T00:41:36.536Z,7.9
2017-12-27T00:42:38.944Z,7.9
2017-12-27T00:43:41.354Z,7.9
2017-12-27T00:44:44.052Z,7.9
2017-12-27T00:45:46.735Z,7.9
2017-12-27T00:46:49.150Z,7.9
2017-12-27T00:47:51.560Z,7.8
2017-12-27T00:48:53.968Z,7.8
2017-12-27T00:49:56.374Z,7.8
2017-12-27T00:50:58.782Z,7.8
2017-12-27T00:52:01.192Z,7.7
2017-12-27T00:53:03.613Z,7.7
2017-12-27T00:54:06.018Z,7.7
2017-12-27T00:55:08.989Z,7.7
2017-12-27T00:56:11.672Z,7.6
2017-12-27T00:57:14.084Z,7.7
2017-12-27T00:58:16.499Z,7.6
2017-12-27T00:59:18.906Z,7.6
2017-12-27T01:00:21.577Z,7.7
2017-12-27T01:01:24.278Z,7.7
2017-12-27T01:02:26.689Z,7.6
2017-12-27T01:03:29.088Z,7.7
2017-12-27T01:04:31.501Z,7.7
2017-12-27T01:05:33.906Z,7.7
2017-12-27T01:06:36.314Z,7.7
2017-12-27T01:07:38.731Z,7.7
2017-12-27T01:08:41.438Z,7.7
2017-12-27T01:09:44.134Z,7.7
2017-12-27T01:10:46.542Z,7.8
2017-12-27T01:11:48.954Z,7.8
2017-12-27T01:12:51.370Z,7.8
2017-12-27T01:13:54.058Z,7.8
2017-12-27T01:14:56.471Z,7.8
2017-12-27T01:15:58.880Z,7.8
2017-12-27T01:17:01.282Z,7.8
2017-12-27T01:18:03.971Z,7.8
2017-12-27T01:19:06.390Z,7.9
2017-12-27T01:20:08.789Z,7.9
2017-12-27T01:21:11.209Z,7.9
2017-12-27T01:22:13.607Z,7.9
2017-12-27T01:23:16.015Z,7.9
2017-12-27T01:24:18.427Z,7.9
2017-12-27T01:25:20.835Z,8
2017-12-27T01:26:23.239Z,8
2017-12-27T01:27:25.660Z,8
2017-12-27T01:28:28.066Z,8
2017-12-27T01:29:30.759Z,8
2017-12-27T01:30:33.164Z,8
2017-12-27T01:31:35.567Z,8
2017-12-27T01:32:37.976Z,8
2017-12-27T01:33:40.399Z,8
2017-12-27T01:34:42.795Z,8
2017-12-27T01:35:45.212Z,8
2017-12-27T01:36:47.620Z,8
2017-12-27T01:37:50.025Z,8
2017-12-27T01:38:52.435Z,8
2017-12-27T01:39:54.845Z,8
2017-12-27T01:40:57.244Z,8
2017-12-27T01:41:59.657Z,8
2017-12-27T01:43:02.067Z,8
2017-12-27T01:44:04.817Z,8.1
2017-12-27T01:45:07.218Z,8.1
2017-12-27T01:46:09.630Z,8.1
2017-12-27T01:47:12.035Z,8.1
2017-12-27T01:48:14.436Z,8
2017-12-27T01:49:16.843Z,8.1
2017-12-27T01:50:19.248Z,8
2017-12-27T01:51:21.653Z,8
2017-12-27T01:52:24.356Z,8.1
2017-12-27T01:53:26.764Z,8.1
2017-12-27T01:54:29.161Z,8.1
2017-12-27T01:55:31.572Z,8
2017-12-27T01:56:34.289Z,8
2017-12-27T01:57:36.700Z,8
2017-12-27T01:58:39.116Z,8
2017-12-27T01:59:41.794Z,8
2017-12-27T02:00:44.482Z,8
2017-12-27T02:01:46.895Z,8
2017-12-27T02:02:49.302Z,8
2017-12-27T02:03:51.995Z,8
2017-12-27T02:04:54.402Z,7.9
2017-12-27T02:05:56.799Z,8
2017-12-27T02:06:59.212Z,7.9
2017-12-27T02:08:01.627Z,7.9
2017-12-27T02:09:04.079Z,7.9
2017-12-27T02:10:06.484Z,7.9
2017-12-27T02:11:08.892Z,7.9
2017-12-27T02:12:11.297Z,7.8
2017-12-27T02:13:13.704Z,7.8
2017-12-27T02:14:16.114Z,7.8
2017-12-27T02:15:18.521Z,7.8
2017-12-27T02:16:20.930Z,7.8
2017-12-27T02:17:23.342Z,7.8
2017-12-27T02:18:25.733Z,7.8
2017-12-27T02:19:28.147Z,7.8
2017-12-27T02:20:30.548Z,7.8
2017-12-27T02:21:32.962Z,7.7
2017-12-27T02:22:35.370Z,7.7
2017-12-27T02:23:38.060Z,7.7
2017-12-27T02:24:40.463Z,7.7
2017-12-27T02:25:42.879Z,7.7
2017-12-27T02:26:45.572Z,7.7
2017-12-27T02:27:47.981Z,7.7
2017-12-27T02:28:50.389Z,7.7
2017-12-27T02:29:52.795Z,7.7
2017-12-27T02:30:55.494Z,7.7
2017-12-27T02:31:57.907Z,7.6
2017-12-27T02:33:00.890Z,7.6
2017-12-27T02:34:03.309Z,7.6
2017-12-27T02:35:05.711Z,7.6
2017-12-27T02:36:08.118Z,7.6
2017-12-27T02:37:10.522Z,7.6
2017-12-27T02:38:12.935Z,7.6
2017-12-27T02:39:15.622Z,7.5
2017-12-27T02:40:18.046Z,7.5
2017-12-27T02:41:20.454Z,7.5
2017-12-27T02:42:22.850Z,7.5
2017-12-27T02:43:25.261Z,7.5
2017-12-27T02:44:27.680Z,7.5
2017-12-27T02:45:30.088Z,7.5
2017-12-27T02:46:32.497Z,7.5
2017-12-27T02:47:34.906Z,7.4
2017-12-27T02:48:37.310Z,7.4
2017-12-27T02:49:39.727Z,7.4
2017-12-27T02:50:42.423Z,7.4
2017-12-27T02:51:45.103Z,7.4
2017-12-27T02:52:47.512Z,7.4
2017-12-27T02:53:49.927Z,7.3
2017-12-27T02:54:52.321Z,7.4
2017-12-27T02:55:55.022Z,7.3
2017-12-27T02:56:57.421Z,7.3
2017-12-27T02:57:59.831Z,7.3
2017-12-27T02:59:02.531Z,7.3
2017-12-27T03:00:04.938Z,7.3
2017-12-27T03:01:07.352Z,7.3
2017-12-27T03:02:09.760Z,7.3
2017-12-27T03:03:12.163Z,7.3
2017-12-27T03:04:14.576Z,7.3
2017-12-27T03:05:16.984Z,7.2
2017-12-27T03:06:19.404Z,7.2
2017-12-27T03:07:21.784Z,7.2
2017-12-27T03:08:24.477Z,7.2
2017-12-27T03:09:26.883Z,7.2
2017-12-27T03:10:29.297Z,7.2
2017-12-27T03:11:31.699Z,7.2
2017-12-27T03:12:34.110Z,7.2
2017-12-27T03:13:36.505Z,7.2
2017-12-27T03:14:38.912Z,7.1
2017-12-27T03:15:41.332Z,7.2
2017-12-27T03:16:43.740Z,7.1
2017-12-27T03:17:46.136Z,7.1
2017-12-27T03:18:48.547Z,7.1
2017-12-27T03:19:51.235Z,7.1
2017-12-27T03:20:53.648Z,7.1
2017-12-27T03:21:56.053Z,7.1
2017-12-27T03:22:58.451Z,7.1
2017-12-27T03:24:00.857Z,7.1
2017-12-27T03:25:03.268Z,7.1
2017-12-27T03:26:05.669Z,7.1
2017-12-27T03:27:08.080Z,7.1
2017-12-27T03:28:10.772Z,7.1
2017-12-27T03:29:13.178Z,7.1
2017-12-27T03:30:15.589Z,7.1
2017-12-27T03:31:17.998Z,7.1
2017-12-27T03:32:20.396Z,7.1
2017-12-27T03:33:22.809Z,7.1
2017-12-27T03:34:25.216Z,7.1
2017-12-27T03:35:27.906Z,7.1
2017-12-27T03:36:30.316Z,7.1
2017-12-27T03:37:32.996Z,7.1
2017-12-27T03:38:35.401Z,7.1
2017-12-27T03:39:38.101Z,7.1
2017-12-27T03:40:40.510Z,7.1
2017-12-27T03:41:42.898Z,7.1
2017-12-27T03:42:45.307Z,7
2017-12-27T03:43:47.708Z,7
2017-12-27T03:44:50.121Z,7
2017-12-27T03:45:52.528Z,7
2017-12-27T03:46:54.940Z,7
2017-12-27T03:47:57.621Z,7
2017-12-27T03:49:00.039Z,7
2017-12-27T03:50:02.443Z,7
2017-12-27T03:51:04.849Z,6.9
2017-12-27T03:52:07.555Z,7
2017-12-27T03:53:09.962Z,7
2017-12-27T03:54:12.371Z,6.9
2017-12-27T03:55:14.781Z,6.9
2017-12-27T03:56:17.183Z,6.9
2017-12-27T03:57:19.596Z,6.9
2017-12-27T03:58:21.996Z,6.9
2017-12-27T03:59:24.407Z,6.9
2017-12-27T04:00:27.092Z,6.9
2017-12-27T04:01:29.506Z,6.9
2017-12-27T04:02:31.900Z,7
2017-12-27T04:03:34.324Z,6.9
2017-12-27T04:04:36.723Z,6.9
2017-12-27T04:05:39.130Z,7
2017-12-27T04:06:41.535Z,7
2017-12-27T04:07:44.225Z,6.9
2017-12-27T04:08:46.912Z,6.9
2017-12-27T04:09:49.325Z,7
2017-12-27T04:10:51.731Z,7
2017-12-27T04:11:54.138Z,6.9
2017-12-27T04:12:56.543Z,6.9
2017-12-27T04:13:58.947Z,6.9
2017-12-27T04:15:01.359Z,7
2017-12-27T04:16:03.767Z,6.9
2017-12-27T04:17:06.179Z,6.9
2017-12-27T04:18:08.585Z,7
2017-12-27T04:19:10.987Z,7
2017-12-27T04:20:13.393Z,7
2017-12-27T04:21:15.798Z,7
2017-12-27T04:22:18.196Z,7
2017-12-27T04:23:20.889Z,7
2017-12-27T04:24:23.298Z,7
2017-12-27T04:25:25.702Z,7
2017-12-27T04:26:28.109Z,7
2017-12-27T04:27:30.520Z,7
2017-12-27T04:28:32.923Z,7
2017-12-27T04:29:35.337Z,7
2017-12-27T04:30:37.745Z,7
2017-12-27T04:31:40.143Z,7
2017-12-27T04:32:42.557Z,7
2017-12-27T04:33:44.970Z,7
2017-12-27T04:34:47.370Z,7
2017-12-27T04:35:49.777Z,6.9
2017-12-27T04:36:52.178Z,6.9
2017-12-27T04:37:54.587Z,6.9
2017-12-27T04:38:57.289Z,6.9
2017-12-27T04:39:59.688Z,6.9
2017-12-27T04:41:02.381Z,6.9
2017-12-27T04:42:04.786Z,6.9
2017-12-27T04:43:07.197Z,6.9
2017-12-27T04:44:09.592Z,6.9
2017-12-27T04:45:11.998Z,6.9
2017-12-27T04:46:14.420Z,6.9
2017-12-27T04:47:16.819Z,6.9
2017-12-27T04:48:19.229Z,6.9
2017-12-27T04:49:21.635Z,6.9
2017-12-27T04:50:24.035Z,6.9
2017-12-27T04:51:26.731Z,6.9
2017-12-27T04:52:29.131Z,6.9
2017-12-27T04:53:31.532Z,6.9
2017-12-27T04:54:33.949Z,6.9
2017-12-27T04:55:36.338Z,6.9
2017-12-27T04:56:38.755Z,6.9
2017-12-27T04:57:41.159Z,7
2017-12-27T04:58:43.565Z,6.9
2017-12-27T04:59:46.275Z,7
2017-12-27T05:00:48.681Z,7
2017-12-27T05:01:51.081Z,7
2017-12-27T05:02:53.501Z,7
2017-12-27T05:03:55.899Z,7
2017-12-27T05:04:58.300Z,7
2017-12-27T05:06:00.704Z,7
2017-12-27T05:07:03.115Z,7.1
2017-12-27T05:08:05.523Z,7.1
2017-12-27T05:09:07.924Z,7.1
2017-12-27T05:10:10.345Z,7.1
2017-12-27T05:11:12.750Z,7.1
2017-12-27T05:12:15.147Z,7.1
2017-12-27T05:13:17.556Z,7.1
2017-12-27T05:14:19.963Z,7.1
2017-12-27T05:15:22.371Z,7
2017-12-27T05:16:25.074Z,7.1
2017-12-27T05:17:27.464Z,7.1
2017-12-27T05:18:30.151Z,7
2017-12-27T05:19:32.564Z,7.1
2017-12-27T05:20:34.967Z,7
2017-12-27T05:21:37.380Z,7.1
2017-12-27T05:22:39.789Z,7
2017-12-27T05:23:42.194Z,7.1
2017-12-27T05:24:44.607Z,7.1
2017-12-27T05:25:47.299Z,7.1
2017-12-27T05:26:49.698Z,7.1
2017-12-27T05:27:52.112Z,7.1
2017-12-27T05:28:54.810Z,7.2
2017-12-27T05:29:57.220Z,7.1
2017-12-27T05:30:59.617Z,7.1
2017-12-27T05:32:02.029Z,7.2
2017-12-27T05:33:04.439Z,7.2
2017-12-27T05:34:06.847Z,7.2
2017-12-27T05:35:09.254Z,7.2
2017-12-27T05:36:11.660Z,7.2
2017-12-27T05:37:14.063Z,7.2
2017-12-27T05:38:16.766Z,7.2
2017-12-27T05:39:19.169Z,7.2
2017-12-27T05:40:21.577Z,7.2
2017-12-27T05:41:23.992Z,7.2
2017-12-27T05:42:26.399Z,7.2
2017-12-27T05:43:29.071Z,7.2
2017-12-27T05:44:31.485Z,7.3
2017-12-27T05:45:33.890Z,7.2
2017-12-27T05:46:36.291Z,7.3
2017-12-27T05:47:38.696Z,7.2
2017-12-27T05:48:41.104Z,7.2
2017-12-27T05:49:43.505Z,7.2
2017-12-27T05:50:45.925Z,7.2
2017-12-27T05:51:48.325Z,7.2
2017-12-27T05:52:50.730Z,7.2
2017-12-27T05:53:53.142Z,7.2
2017-12-27T05:54:55.547Z,7.2
2017-12-27T05:55:57.956Z,7.2
2017-12-27T05:57:00.365Z,7.2
2017-12-27T05:58:02.769Z,7.2
2017-12-27T05:59:05.449Z,7.2
2017-12-27T06:00:07.850Z,7.1
2017-12-27T06:01:10.252Z,7.1
2017-12-27T06:02:12.953Z,7.1
2017-12-27T06:03:15.357Z,7.1
2017-12-27T06:04:18.037Z,7
2017-12-27T06:05:20.443Z,7.1
2017-12-27T06:06:22.857Z,7.1
2017-12-27T06:07:25.550Z,7
2017-12-27T06:08:27.963Z,7
2017-12-27T06:09:30.357Z,7
2017-12-27T06:10:32.760Z,7
2017-12-27T06:11:35.166Z,7
2017-12-27T06:12:37.573Z,7
2017-12-27T06:13:40.262Z,7
2017-12-27T06:14:43.237Z,7
2017-12-27T06:15:45.682Z,7
2017-12-27T06:16:48.342Z,7
2017-12-27T06:17:50.754Z,7
2017-12-27T06:18:53.160Z,7
2017-12-27T06:19:55.563Z,7
2017-12-27T06:20:57.971Z,7
2017-12-27T06:22:00.378Z,7
2017-12-27T06:23:02.784Z,7
2017-12-27T06:24:05.189Z,7
2017-12-27T06:25:07.594Z,7
2017-12-27T06:26:10.001Z,7
2017-12-27T06:27:12.413Z,7
2017-12-27T06:28:14.801Z,7
2017-12-27T06:29:17.252Z,7
2017-12-27T06:30:19.618Z,7
2017-12-27T06:31:22.034Z,7
2017-12-27T06:32:24.443Z,7
2017-12-27T06:33:26.855Z,7
2017-12-27T06:34:29.257Z,7
2017-12-27T06:35:31.678Z,7
2017-12-27T06:36:34.084Z,7
2017-12-27T06:37:36.484Z,7
2017-12-27T06:38:38.891Z,7.1
2017-12-27T06:39:41.298Z,7.1
2017-12-27T06:40:43.693Z,7.1
2017-12-27T06:41:46.101Z,7.1
2017-12-27T06:42:48.515Z,7.1
2017-12-27T06:43:51.202Z,7.2
2017-12-27T06:44:53.599Z,7.1
2017-12-27T06:45:56.563Z,7.1
2017-12-27T06:46:58.974Z,7.1
2017-12-27T06:48:01.385Z,7.1
2017-12-27T06:49:03.791Z,7.1
2017-12-27T06:50:06.180Z,7.1
2017-12-27T06:51:08.584Z,7.1
2017-12-27T06:52:11.003Z,7.1
2017-12-27T06:53:13.404Z,7.1
2017-12-27T06:54:15.814Z,7.1
2017-12-27T06:55:18.222Z,7.1
2017-12-27T06:56:20.916Z,7.1
2017-12-27T06:57:23.323Z,7.1
2017-12-27T06:58:25.727Z,7.1
2017-12-27T06:59:28.123Z,7.1
2017-12-27T07:00:30.537Z,7.1
2017-12-27T07:01:33.230Z,7.2
2017-12-27T07:02:35.630Z,7.2
2017-12-27T07:03:38.039Z,7.2
2017-12-27T07:04:40.444Z,7.2
2017-12-27T07:05:43.128Z,7.2
2017-12-27T07:06:45.538Z,7.1
2017-12-27T07:07:47.944Z,7.1
2017-12-27T07:08:50.341Z,7.2
2017-12-27T07:09:52.752Z,7.1
2017-12-27T07:10:55.158Z,7.2
2017-12-27T07:11:57.562Z,7.2
2017-12-27T07:12:59.959Z,7.2
2017-12-27T07:14:02.366Z,7.2
2017-12-27T07:15:04.769Z,7.1
2017-12-27T07:16:07.475Z,7.2
2017-12-27T07:17:09.883Z,7.2
2017-12-27T07:18:12.565Z,7.2
2017-12-27T07:19:14.975Z,7.2
2017-12-27T07:20:17.379Z,7.2
2017-12-27T07:21:19.794Z,7.2
2017-12-27T07:22:22.488Z,7.2
2017-12-27T07:23:24.891Z,7.2
2017-12-27T07:24:27.583Z,7.2
2017-12-27T07:25:30.283Z,7.2
2017-12-27T07:26:32.971Z,7.2
2017-12-27T07:27:35.364Z,7.3
2017-12-27T07:28:37.777Z,7.3
2017-12-27T07:29:40.180Z,7.3
2017-12-27T07:30:42.588Z,7.3
2017-12-27T07:31:45.286Z,7.3
2017-12-27T07:32:47.681Z,7.3
2017-12-27T07:33:50.089Z,7.3
2017-12-27T07:34:52.508Z,7.4
2017-12-27T07:35:54.906Z,7.4
2017-12-27T07:36:57.596Z,7.4
2017-12-27T07:38:00.012Z,7.4
2017-12-27T07:39:02.712Z,7.4
2017-12-27T07:40:05.115Z,7.5
2017-12-27T07:41:08.096Z,7.5
2017-12-27T07:42:10.506Z,7.5
2017-12-27T07:43:12.919Z,7.5
2017-12-27T07:44:15.329Z,7.6
2017-12-27T07:45:17.733Z,7.5
2017-12-27T07:46:20.142Z,7.5
2017-12-27T07:47:22.558Z,7.6
2017-12-27T07:48:24.959Z,7.6
2017-12-27T07:49:27.371Z,7.6
2017-12-27T07:50:30.062Z,7.6
2017-12-27T07:51:32.491Z,7.5
2017-12-27T07:52:34.992Z,7.5
2017-12-27T07:53:37.404Z,7.5
2017-12-27T07:54:39.825Z,7.5
2017-12-27T07:55:42.242Z,7.5
2017-12-27T07:56:44.675Z,7.5
2017-12-27T07:57:47.370Z,7.5
2017-12-27T07:58:49.775Z,7.5
2017-12-27T07:59:52.197Z,7.5
2017-12-27T08:00:54.597Z,7.6
2017-12-27T08:01:57.009Z,7.5
2017-12-27T08:02:59.421Z,7.5
2017-12-27T08:04:01.831Z,7.5
2017-12-27T08:05:04.521Z,7.5
2017-12-27T08:06:06.937Z,7.5
2017-12-27T08:07:09.342Z,7.5
2017-12-27T08:08:11.772Z,7.5
2017-12-27T08:09:14.170Z,7.5
2017-12-27T08:10:16.587Z,7.6
2017-12-27T08:11:18.993Z,7.6
2017-12-27T08:12:21.400Z,7.6
2017-12-27T08:13:23.807Z,7.5
2017-12-27T08:14:26.224Z,7.5
2017-12-27T08:15:28.621Z,7.5
2017-12-27T08:16:31.037Z,7.5
2017-12-27T08:17:33.453Z,7.6
2017-12-27T08:18:35.860Z,7.6
2017-12-27T08:19:38.280Z,7.6
2017-12-27T08:20:40.690Z,7.6
2017-12-27T08:21:43.089Z,7.6
2017-12-27T08:22:45.507Z,7.6
2017-12-27T08:23:48.195Z,7.6
2017-12-27T08:24:50.609Z,7.7
2017-12-27T08:25:53.020Z,7.6
2017-12-27T08:26:55.721Z,7.7
2017-12-27T08:27:58.122Z,7.7
2017-12-27T08:29:00.544Z,7.7
2017-12-27T08:30:02.935Z,7.7
2017-12-27T08:31:05.634Z,7.7
2017-12-27T08:32:08.045Z,7.7
2017-12-27T08:33:10.508Z,7.7
2017-12-27T08:34:13.033Z,7.7
2017-12-27T08:35:15.444Z,7.6
2017-12-27T08:36:17.852Z,7.7
2017-12-27T08:37:20.281Z,7.7
2017-12-27T08:38:22.702Z,7.7
2017-12-27T08:39:25.121Z,7.7
2017-12-27T08:40:27.529Z,7.7
2017-12-27T08:41:29.916Z,7.7
2017-12-27T08:42:32.329Z,7.7
2017-12-27T08:43:34.743Z,7.7
2017-12-27T08:44:37.157Z,7.7
2017-12-27T08:45:39.566Z,7.7
2017-12-27T08:46:41.967Z,7.7
2017-12-27T08:47:44.378Z,7.7
2017-12-27T08:48:47.082Z,7.8
2017-12-27T08:49:49.492Z,7.8
2017-12-27T08:50:51.893Z,7.8
2017-12-27T08:51:54.299Z,7.8
2017-12-27T08:52:56.709Z,7.8
2017-12-27T08:53:59.118Z,7.8
2017-12-27T08:55:01.525Z,7.8
2017-12-27T08:56:03.924Z,7.8
2017-12-27T08:57:06.330Z,7.8
2017-12-27T08:58:08.740Z,7.8
2017-12-27T08:59:11.452Z,7.8
2017-12-27T09:00:13.854Z,7.8
2017-12-27T09:01:16.266Z,7.8
2017-12-27T09:02:18.674Z,7.9
2017-12-27T09:03:21.101Z,7.9
2017-12-27T09:04:23.510Z,7.9
2017-12-27T09:05:25.907Z,7.9
2017-12-27T09:06:28.311Z,7.9
2017-12-27T09:07:30.733Z,7.9
2017-12-27T09:08:33.420Z,7.9
2017-12-27T09:09:35.828Z,8
2017-12-27T09:10:38.236Z,8
2017-12-27T09:11:40.935Z,8
2017-12-27T09:12:43.344Z,8
2017-12-27T09:13:45.758Z,8
2017-12-27T09:14:49.178Z,8
2017-12-27T09:15:52.192Z,8
2017-12-27T09:16:54.924Z,8.1
2017-12-27T09:17:57.327Z,8.1
2017-12-27T09:18:59.731Z,8.1
2017-12-27T09:20:02.151Z,8.2
2017-12-27T09:21:04.562Z,8.2
2017-12-27T09:22:06.976Z,8.2
2017-12-27T09:23:09.386Z,8.2
2017-12-27T09:24:11.799Z,8.3
2017-12-27T09:25:14.204Z,8.3
2017-12-27T09:26:16.900Z,8.3
2017-12-27T09:27:19.308Z,8.3
2017-12-27T09:28:21.723Z,8.3
2017-12-27T09:29:24.425Z,8.4
2017-12-27T09:30:26.833Z,8.4
2017-12-27T09:31:29.250Z,8.4
2017-12-27T09:32:31.977Z,8.4
2017-12-27T09:33:34.392Z,8.4
2017-12-27T09:34:36.794Z,8.5
2017-12-27T09:35:39.205Z,8.5
2017-12-27T09:36:41.890Z,8.5
2017-12-27T09:37:44.293Z,8.5
2017-12-27T09:38:46.723Z,8.5
2017-12-27T09:39:49.141Z,8.5
2017-12-27T09:40:51.549Z,8.5
2017-12-27T09:41:53.951Z,8.6
2017-12-27T09:42:56.364Z,8.6
2017-12-27T09:43:59.054Z,8.6
2017-12-27T09:45:01.749Z,8.6
2017-12-27T09:46:04.147Z,8.6
2017-12-27T09:47:06.572Z,8.6
2017-12-27T09:48:08.978Z,8.7
2017-12-27T09:49:11.393Z,8.6
2017-12-27T09:50:13.794Z,8.7
2017-12-27T09:51:16.204Z,8.7
2017-12-27T09:52:18.610Z,8.7
2017-12-27T09:53:21.527Z,8.7
2017-12-27T09:54:24.484Z,8.8
2017-12-27T09:55:26.943Z,8.8
2017-12-27T09:56:29.375Z,8.8
2017-12-27T09:57:31.775Z,8.8
2017-12-27T09:58:34.477Z,8.8
2017-12-27T09:59:36.928Z,8.9
2017-12-27T10:00:39.636Z,8.9
2017-12-27T10:01:42.615Z,8.9
2017-12-27T10:02:45.022Z,8.9
2017-12-27T10:03:47.436Z,8.9
2017-12-27T10:04:50.134Z,8.9
2017-12-27T10:05:52.543Z,8.9
2017-12-27T10:06:55.087Z,9
2017-12-27T10:07:57.787Z,9
2017-12-27T10:09:00.192Z,8.9
2017-12-27T10:10:02.597Z,8.9
2017-12-27T10:11:05.009Z,8.9
2017-12-27T10:12:07.430Z,8.9
2017-12-27T10:13:09.836Z,9
2017-12-27T10:14:12.248Z,9
2017-12-27T10:15:14.673Z,9
2017-12-27T10:16:17.083Z,9
2017-12-27T10:17:19.487Z,9
2017-12-27T10:18:21.900Z,9
2017-12-27T10:19:24.303Z,9
2017-12-27T10:20:26.718Z,9
2017-12-27T10:21:29.127Z,9
2017-12-27T10:22:31.541Z,9
2017-12-27T10:23:33.945Z,9.1
2017-12-27T10:24:36.645Z,9.1
2017-12-27T10:25:39.057Z,9.1
2017-12-27T10:26:41.485Z,9.2
2017-12-27T10:27:43.890Z,9.2
2017-12-27T10:28:46.300Z,9.2
2017-12-27T10:29:48.719Z,9.3
2017-12-27T10:30:51.130Z,9.2
2017-12-27T10:31:53.539Z,9.3
2017-12-27T10:32:56.242Z,9.3
2017-12-27T10:33:58.644Z,9.3
2017-12-27T10:35:01.054Z,9.3
2017-12-27T10:36:03.598Z,9.3
2017-12-27T10:37:07.012Z,9.3
2017-12-27T10:38:09.620Z,9.3
2017-12-27T10:39:12.280Z,9.3
2017-12-27T10:40:14.969Z,9.3
2017-12-27T10:41:17.642Z,9.4
2017-12-27T10:42:20.308Z,9.4
2017-12-27T10:43:23.025Z,9.4
2017-12-27T10:44:25.769Z,9.4
2017-12-27T10:45:28.720Z,9.4
2017-12-27T10:46:31.469Z,9.5
2017-12-27T10:47:34.861Z,9.5
2017-12-27T10:48:37.662Z,9.5
2017-12-27T10:49:40.478Z,9.5
2017-12-27T10:50:43.285Z,9.6
2017-12-27T10:51:46.107Z,9.6
2017-12-27T10:52:49.219Z,9.6
2017-12-27T10:53:52.029Z,9.6
2017-12-27T10:54:55.193Z,9.7
2017-12-27T10:55:58.092Z,9.7
2017-12-27T10:57:00.920Z,9.7
2017-12-27T10:58:03.801Z,9.7
2017-12-27T10:59:06.632Z,9.7
2017-12-27T11:00:09.357Z,9.7
2017-12-27T11:01:12.260Z,9.7
2017-12-27T11:02:15.159Z,9.6
2017-12-27T11:03:17.979Z,9.7
2017-12-27T11:04:20.843Z,9.7
2017-12-27T11:05:23.507Z,9.7
2017-12-27T11:06:26.278Z,9.6
2017-12-27T11:07:29.033Z,9.7
2017-12-27T11:08:32.208Z,9.7
2017-12-27T11:09:35.376Z,9.7
2017-12-27T11:10:38.162Z,9.7
2017-12-27T11:11:41.086Z,9.7
2017-12-27T11:12:43.751Z,9.8
2017-12-27T11:13:46.557Z,9.8
2017-12-27T11:14:49.417Z,9.9
2017-12-27T11:15:52.081Z,9.9
2017-12-27T11:16:54.498Z,9.9
2017-12-27T11:17:56.915Z,9.9
2017-12-27T11:18:59.845Z,9.9
2017-12-27T11:20:02.532Z,9.9
2017-12-27T11:21:04.937Z,9.9
2017-12-27T11:22:07.345Z,9.9
2017-12-27T11:23:09.754Z,9.9
2017-12-27T11:24:12.168Z,9.9
2017-12-27T11:25:14.577Z,9.9
2017-12-27T11:26:17.037Z,9.9
2017-12-27T11:27:19.470Z,9.9
2017-12-27T11:28:22.174Z,9.9
2017-12-27T11:29:24.584Z,9.9
2017-12-27T11:30:27.272Z,9.9
2017-12-27T11:31:29.687Z,9.9
2017-12-27T11:32:32.113Z,9.9
2017-12-27T11:33:34.514Z,9.8
2017-12-27T11:34:36.928Z,9.9
2017-12-27T11:35:39.654Z,9.9
2017-12-27T11:36:42.065Z,9.9
2017-12-27T11:37:44.753Z,9.9
2017-12-27T11:38:47.167Z,9.9
2017-12-27T11:39:49.580Z,9.9
2017-12-27T11:40:51.991Z,9.9
2017-12-27T11:41:54.402Z,9.9
2017-12-27T11:42:56.803Z,9.9
2017-12-27T11:43:59.218Z,9.9
2017-12-27T11:45:01.932Z,9.9
2017-12-27T11:46:04.345Z,9.9
2017-12-27T11:47:06.806Z,9.9
2017-12-27T11:48:09.803Z,9.8
2017-12-27T11:49:12.397Z,9.8
2017-12-27T11:50:14.925Z,9.8
2017-12-27T11:51:17.339Z,9.8
2017-12-27T11:52:19.753Z,9.8
2017-12-27T11:53:22.164Z,9.8
2017-12-27T11:54:24.573Z,9.8
2017-12-27T11:55:27.267Z,9.8
2017-12-27T11:56:29.680Z,9.8
2017-12-27T11:57:32.128Z,9.8
2017-12-27T11:58:34.701Z,9.8
2017-12-27T11:59:37.359Z,9.8
2017-12-27T12:00:39.786Z,9.8
2017-12-27T12:01:42.192Z,9.8
2017-12-27T12:02:44.612Z,9.9
2017-12-27T12:03:47.030Z,9.9
2017-12-27T12:04:49.486Z,9.9
2017-12-27T12:05:51.997Z,9.9
2017-12-27T12:06:54.416Z,9.9
2017-12-27T12:07:56.821Z,9.9
2017-12-27T12:08:59.248Z,9.9
2017-12-27T12:10:01.665Z,9.9
2017-12-27T12:11:04.078Z,9.9
2017-12-27T12:12:06.773Z,9.9
2017-12-27T12:13:09.186Z,9.9
2017-12-27T12:14:11.683Z,9.9
2017-12-27T12:15:14.281Z,9.9
2017-12-27T12:16:16.808Z,9.9
2017-12-27T12:17:19.214Z,9.9
2017-12-27T12:18:21.619Z,9.9
2017-12-27T12:19:24.035Z,9.9
2017-12-27T12:20:26.722Z,9.9
2017-12-27T12:21:29.126Z,9.9
2017-12-27T12:22:31.823Z,9.9
2017-12-27T12:23:34.229Z,9.9
2017-12-27T12:24:36.926Z,9.9
2017-12-27T12:25:39.636Z,9.9
2017-12-27T12:26:42.037Z,9.9
2017-12-27T12:27:44.747Z,9.9
2017-12-27T12:28:47.160Z,10
2017-12-27T12:29:49.572Z,10
2017-12-27T12:30:51.983Z,10
2017-12-27T12:31:54.666Z,10
2017-12-27T12:32:57.070Z,10
2017-12-27T12:34:00.038Z,10
2017-12-27T12:35:02.847Z,10
2017-12-27T12:36:05.258Z,9.9
2017-12-27T12:37:07.664Z,9.9
2017-12-27T12:38:10.079Z,9.9
2017-12-27T12:39:12.767Z,9.9
2017-12-27T12:40:15.183Z,9.9
2017-12-27T12:41:17.599Z,9.9
2017-12-27T12:42:20.005Z,9.9
2017-12-27T12:43:22.417Z,9.9
2017-12-27T12:44:24.832Z,9.9
2017-12-27T12:45:27.241Z,9.9
2017-12-27T12:46:29.660Z,9.9
2017-12-27T12:47:32.076Z,10
2017-12-27T12:48:34.480Z,10
2017-12-27T12:49:36.903Z,10
2017-12-27T12:50:39.598Z,10
2017-12-27T12:51:41.993Z,10.1
2017-12-27T12:52:44.406Z,10.1
2017-12-27T12:53:46.819Z,10.1
2017-12-27T12:54:49.239Z,10.1
2017-12-27T12:55:51.651Z,10.1
2017-12-27T12:56:54.054Z,10.2
2017-12-27T12:57:56.466Z,10.2
2017-12-27T12:58:59.201Z,10.2
2017-12-27T13:00:01.608Z,10.2
2017-12-27T13:01:04.281Z,10.2
2017-12-27T13:02:06.692Z,10.2
2017-12-27T13:03:09.108Z,10.2
2017-12-27T13:04:11.798Z,10.2
2017-12-27T13:05:14.213Z,10.3
2017-12-27T13:06:16.637Z,10.3
2017-12-27T13:07:19.055Z,10.3
2017-12-27T13:08:21.747Z,10.3
2017-12-27T13:09:24.461Z,10.3
2017-12-27T13:10:27.178Z,10.3
2017-12-27T13:11:29.585Z,10.3
2017-12-27T13:12:32.003Z,10.3
2017-12-27T13:13:34.401Z,10.3
2017-12-27T13:14:36.806Z,10.3
2017-12-27T13:15:39.231Z,10.3
2017-12-27T13:16:41.643Z,10.3
2017-12-27T13:17:44.056Z,10.3
2017-12-27T13:18:46.742Z,10.3
2017-12-27T13:19:49.436Z,10.3
2017-12-27T13:20:51.849Z,10.3
2017-12-27T13:21:54.386Z,10.3
2017-12-27T13:22:56.966Z,10.3
2017-12-27T13:23:59.440Z,10.3
2017-12-27T13:25:02.268Z,10.3
2017-12-27T13:26:04.740Z,10.3
2017-12-27T13:27:07.651Z,10.3
2017-12-27T13:28:10.054Z,10.3
2017-12-27T13:29:12.466Z,10.3
2017-12-27T13:30:15.229Z,10.3
2017-12-27T13:31:17.637Z,10.3
2017-12-27T13:32:20.191Z,10.3
2017-12-27T13:33:22.732Z,10.3
2017-12-27T13:34:25.147Z,10.2
2017-12-27T13:35:27.557Z,10.2
2017-12-27T13:36:29.967Z,10.2
2017-12-27T13:37:32.392Z,10.2
2017-12-27T13:38:34.803Z,10.2
2017-12-27T13:39:37.202Z,10.2
2017-12-27T13:40:39.909Z,10.2
2017-12-27T13:41:42.316Z,10.2
2017-12-27T13:42:45.027Z,10.2
2017-12-27T13:43:47.712Z,10.2
2017-12-27T13:44:50.137Z,10.2
2017-12-27T13:45:52.601Z,10.2
2017-12-27T13:46:55.029Z,10.2
2017-12-27T13:47:57.741Z,10.2
2017-12-27T13:49:00.159Z,10.3
2017-12-27T13:50:02.569Z,10.3
2017-12-27T13:51:04.984Z,10.3
2017-12-27T13:52:07.390Z,10.3
2017-12-27T13:53:10.087Z,10.3
2017-12-27T13:54:12.497Z,10.3
2017-12-27T13:55:14.914Z,10.3
2017-12-27T13:56:17.325Z,10.3
2017-12-27T13:57:19.737Z,10.3
2017-12-27T13:58:22.144Z,10.3
2017-12-27T13:59:24.558Z,10.3
2017-12-27T14:00:26.968Z,10.3
2017-12-27T14:01:29.388Z,10.3
2017-12-27T14:02:32.074Z,10.3
2017-12-27T14:03:34.789Z,10.3
2017-12-27T14:04:37.201Z,10.3
2017-12-27T14:05:39.883Z,10.3
2017-12-27T14:06:42.579Z,10.3
2017-12-27T14:07:45.263Z,10.3
2017-12-27T14:08:47.961Z,10.3
2017-12-27T14:09:50.373Z,10.3
2017-12-27T14:10:52.779Z,10.3
2017-12-27T14:11:55.195Z,10.3
2017-12-27T14:12:57.894Z,10.3
2017-12-27T14:14:00.307Z,10.3
2017-12-27T14:15:02.728Z,10.3
2017-12-27T14:16:05.139Z,10.3
2017-12-27T14:17:07.833Z,10.3
2017-12-27T14:18:10.253Z,10.2
2017-12-27T14:19:12.665Z,10.2
2017-12-27T14:20:15.068Z,10.2
2017-12-27T14:21:17.478Z,10.2
2017-12-27T14:22:19.903Z,10.2
2017-12-27T14:23:22.311Z,10.2
2017-12-27T14:24:24.722Z,10.1
2017-12-27T14:25:27.142Z,10.1
2017-12-27T14:26:29.550Z,10.1
2017-12-27T14:27:31.961Z,10.1